Thursday, November 23, 2017, 7:12 AM GMT
Back to Local

CWIP, Pointe Noire , Que.

Location: , , Canada Lat: 50.167
Local Time: 7:12 AM GMT ( 7:12 GMT) Lon: -66.433
Time Zone: GMT Elev: 82 ft

Show me the last for .
Show Coded

Time T Td Feel RH Dir Speed Gust Alt SLP Vis Weather Sky Remarks
2017-11-23 06:00 34 - 29 0 330° 6 - - - 0 None
2017-11-23 05:00 33 - 29 0 300° 5 - - - 0 None
2017-11-23 04:00 33 - 30 0 320° 3 - - - 0 None
2017-11-23 03:00 33 - 28 0 350° 6 - - - 0 None
2017-11-23 02:00 33 - 29 0 360° 5 - - - 0 1-hr Precip Total: 0.01"
2017-11-23 01:00 33 - 30 0 360° 3 - - - 0 None
2017-11-23 00:00 33 - 30 0 360° 3 - - - 0 1-hr Precip Total: 0.01"
2017-11-22 23:00 33 - - 0 350° 2 - - - 0 1-hr Precip Total: 0.01"
2017-11-22 22:00 34 - 31 0 60° 3 - - - 0 1-hr Precip Total: 0.01"
2017-11-22 21:00 33 - 30 0 80° 3 - - - 0 1-hr Precip Total: 0.01"
2017-11-22 20:00 34 - 31 0 80° 3 - - - 0 None
2017-11-22 19:00 33 - 30 0 60° 3 - - - 0 None
2017-11-22 18:00 33 - 30 0 70° 3 - - - 0 None
2017-11-22 16:00 31 - 27 0 60° 5 - - - 0 None
2017-11-22 15:00 32 - 29 0 60° 3 - - - 0 None
2017-11-22 12:00 33 - 27 0 60° 6 - - - 0 None
2017-11-22 11:00 31 - 26 0 70° 6 - - - 0 None
2017-11-22 10:00 31 - 27 0 70° 3 - - - 0 None
2017-11-22 09:00 31 - 24 0 70° 7 - - - 0 None
2017-11-22 08:00 30 - 24 0 60° 7 - - - 0 None

Support USWX by starting your Amazon purchase here.